Time;durP1;ratioP1;P1;durP2;ratioP2;P2;SDS_P1;SDS_P2;PMS_P1;PMS_P2;Temp;Humidity;BMP_temperature;BMP_pressure;BME280_temperature;BME280_humidity;BME280_pressure;Samples;Min_cycle;Max_cycle;Signal;HPM_P1;HPM_P2
2024/04/09 00:02:09;;;;;;;11.20;10.15;;;17.20;99.90;;;;;;5351196;26;20254;-72
2024/04/09 00:04:38;;;;;;;10.82;9.85;;;17.20;99.90;;;;;;5352823;26;20265;-72
2024/04/09 00:07:05;;;;;;;12.05;10.98;;;17.20;99.90;;;;;;5346007;26;20292;-72
2024/04/09 00:09:42;;;;;;;12.43;11.27;;;17.20;99.90;;;;;;5350036;26;20254;-71
2024/04/09 00:12:09;;;;;;;10.73;9.82;;;17.10;99.90;;;;;;5352891;26;20256;-72
2024/04/09 00:14:38;;;;;;;14.75;13.38;;;17.10;99.90;;;;;;5349790;26;20283;-72
2024/04/09 00:17:06;;;;;;;15.30;13.90;;;17.10;99.90;;;;;;5357032;26;20338;-72
2024/04/09 00:19:35;;;;;;;13.20;11.90;;;17.10;99.90;;;;;;5348740;26;22175;-73
2024/04/09 00:22:01;;;;;;;11.98;10.88;;;17.00;99.90;;;;;;5352363;26;20253;-72
2024/04/09 00:24:31;;;;;;;13.82;12.55;;;17.00;99.90;;;;;;5349710;26;20253;-72
2024/04/09 00:27:01;;;;;;;14.80;13.40;;;16.90;99.90;;;;;;5347074;26;20305;-71
2024/04/09 00:29:30;;;;;;;16.13;14.73;;;16.80;99.90;;;;;;5351196;26;20238;-72
2024/04/09 00:31:56;;;;;;;13.85;12.57;;;16.50;99.90;;;;;;5347045;26;20288;-71
2024/04/09 00:34:27;;;;;;;20.65;18.75;;;16.50;99.90;;;;;;5349756;26;20776;-72
2024/04/09 00:36:53;;;;;;;17.02;15.27;;;16.50;99.90;;;;;;5349861;26;20249;-72
2024/04/09 00:39:23;;;;;;;16.58;15.07;;;16.50;99.90;;;;;;5346675;26;21100;-71
2024/04/09 00:41:49;;;;;;;16.15;14.73;;;16.50;99.90;;;;;;5350370;26;20528;-71
2024/04/09 00:44:18;;;;;;;14.93;13.63;;;16.50;99.90;;;;;;5354503;26;20259;-71
2024/04/09 00:46:46;;;;;;;15.80;14.40;;;16.40;99.90;;;;;;5351832;26;20353;-71
2024/04/09 00:49:16;;;;;;;17.38;15.65;;;16.30;99.90;;;;;;5353340;26;20285;-72
2024/04/09 00:51:49;;;;;;;14.00;12.70;;;16.30;99.90;;;;;;5352772;26;20261;-73
2024/04/09 00:54:19;;;;;;;16.90;15.10;;;16.30;99.90;;;;;;5350693;26;20367;-72
2024/04/09 00:56:46;;;;;;;17.48;15.75;;;16.30;99.90;;;;;;5354284;26;20301;-71
2024/04/09 00:59:15;;;;;;;17.23;15.55;;;16.20;99.90;;;;;;5352518;26;21337;-71
2024/04/09 01:01:42;;;;;;;13.88;12.52;;;16.20;99.90;;;;;;5361058;26;20237;-72
2024/04/09 01:04:11;;;;;;;11.90;10.90;;;16.20;99.90;;;;;;5382276;26;20265;-73
2024/04/09 01:06:38;;;;;;;13.70;12.40;;;16.30;99.90;;;;;;5355317;26;20291;-72
2024/04/09 01:09:09;;;;;;;11.57;10.57;;;16.30;99.90;;;;;;5352818;26;20303;-70
2024/04/09 01:11:35;;;;;;;13.40;12.20;;;16.20;99.90;;;;;;5351937;26;20351;-71
2024/04/09 01:14:04;;;;;;;12.82;11.63;;;16.20;99.90;;;;;;5351957;26;20257;-72
2024/04/09 01:16:30;;;;;;;17.35;15.55;;;16.20;99.90;;;;;;5356730;26;20261;-72
2024/04/09 01:18:58;;;;;;;17.83;15.93;;;16.00;99.90;;;;;;5354312;26;20304;-72
2024/04/09 01:21:24;;;;;;;13.63;12.25;;;16.00;99.90;;;;;;5349897;26;20257;-72
2024/04/09 01:23:55;;;;;;;16.33;14.82;;;16.00;99.90;;;;;;5359958;26;20620;-73
2024/04/09 01:26:23;;;;;;;16.70;15.00;;;15.90;99.90;;;;;;5353009;26;20417;-72
2024/04/09 01:28:51;;;;;;;14.95;13.55;;;15.80;99.90;;;;;;5360969;26;20280;-71
2024/04/09 01:31:18;;;;;;;14.07;12.77;;;15.80;99.90;;;;;;5350660;26;20261;-72
2024/04/09 01:33:47;;;;;;;16.20;14.70;;;15.70;99.90;;;;;;5356864;26;20266;-72
2024/04/09 01:36:13;;;;;;;18.00;16.30;;;15.70;99.90;;;;;;5353965;26;20380;-73
2024/04/09 01:38:42;;;;;;;16.10;13.70;;;15.70;99.90;;;;;;5352415;26;20672;-72
2024/04/09 01:41:10;;;;;;;15.80;14.30;;;15.60;99.90;;;;;;5351702;26;20724;-72
2024/04/09 01:43:39;;;;;;;12.55;11.45;;;15.60;99.90;;;;;;5358544;26;20241;-73
2024/04/09 01:46:08;;;;;;;13.88;12.60;;;15.60;99.90;;;;;;5354446;26;20974;-72
2024/04/09 01:48:38;;;;;;;13.30;12.10;;;15.60;99.90;;;;;;5358756;26;20257;-72
2024/04/09 01:51:09;;;;;;;15.88;14.25;;;15.50;99.90;;;;;;5354299;26;20387;-72
2024/04/09 01:53:37;;;;;;;13.80;12.52;;;15.50;99.90;;;;;;5356860;26;21189;-73
2024/04/09 01:56:04;;;;;;;12.77;11.68;;;15.50;99.90;;;;;;5359370;26;20324;-71
2024/04/09 01:58:35;;;;;;;12.75;11.55;;;15.40;99.90;;;;;;5354895;26;20258;-71
2024/04/09 02:01:04;;;;;;;12.85;11.63;;;15.40;99.90;;;;;;5350659;26;20265;-72
2024/04/09 02:03:34;;;;;;;13.30;12.02;;;15.50;99.90;;;;;;5356570;26;20951;-70
2024/04/09 02:06:02;;;;;;;11.88;10.82;;;15.50;99.90;;;;;;5361298;26;20688;-72
2024/04/09 02:08:30;;;;;;;10.93;10.02;;;15.50;99.90;;;;;;5365938;26;20264;-73
2024/04/09 02:10:56;;;;;;;13.48;12.15;;;15.50;99.90;;;;;;5367637;26;20253;-71
2024/04/09 02:13:25;;;;;;;12.30;11.10;;;15.60;99.90;;;;;;5358417;26;21132;-71
2024/04/09 02:15:54;;;;;;;11.52;10.40;;;15.60;99.90;;;;;;5357770;26;20250;-71
2024/04/09 02:18:23;;;;;;;13.55;12.25;;;15.60;99.90;;;;;;5358758;26;20300;-72
2024/04/09 02:20:49;;;;;;;12.82;11.73;;;15.60;99.90;;;;;;5360047;26;20300;-73
2024/04/09 02:23:18;;;;;;;11.20;10.30;;;15.60;99.90;;;;;;5366949;26;20265;-71
2024/04/09 02:25:44;;;;;;;12.43;11.32;;;15.50;99.90;;;;;;5361879;26;20276;-71
2024/04/09 02:28:14;;;;;;;12.02;10.93;;;15.50;99.90;;;;;;5351103;26;20735;-73
2024/04/09 02:30:40;;;;;;;12.00;10.88;;;15.50;99.90;;;;;;5350106;26;20342;-72
2024/04/09 02:33:13;;;;;;;12.82;11.52;;;15.50;99.90;;;;;;5349663;26;20269;-71
2024/04/09 02:35:42;;;;;;;12.25;11.25;;;15.50;99.90;;;;;;5353024;26;20929;-72
2024/04/09 02:38:11;;;;;;;11.32;10.20;;;15.50;99.90;;;;;;5356575;26;20321;-72
2024/04/09 02:40:37;;;;;;;11.10;10.10;;;15.50;99.90;;;;;;5354596;26;20643;-71
2024/04/09 02:43:06;;;;;;;10.43;9.35;;;15.50;99.90;;;;;;5346129;26;20258;-73
2024/04/09 02:45:33;;;;;;;11.25;10.25;;;15.40;99.90;;;;;;5355699;26;20261;-73
2024/04/09 02:48:01;;;;;;;11.13;10.07;;;15.30;99.90;;;;;;5352985;26;20309;-71
2024/04/09 02:50:30;;;;;;;11.57;10.60;;;15.30;99.90;;;;;;5352670;26;20268;-72
2024/04/09 02:52:58;;;;;;;10.63;9.73;;;15.20;99.90;;;;;;5349249;26;20257;-72
2024/04/09 02:55:24;;;;;;;8.98;8.25;;;15.20;99.90;;;;;;5351902;26;21042;-72
2024/04/09 02:57:53;;;;;;;10.70;9.70;;;15.10;99.90;;;;;;5349487;26;20417;-73
2024/04/09 03:00:19;;;;;;;9.23;8.43;;;15.10;99.90;;;;;;5352552;26;20778;-70
2024/04/09 03:02:52;;;;;;;10.20;9.30;;;15.10;99.90;;;;;;5348723;26;20257;-72
2024/04/09 03:05:21;;;;;;;10.27;9.30;;;15.00;99.90;;;;;;5350297;26;20833;-71
2024/04/09 03:07:55;;;;;;;9.20;8.40;;;15.00;99.90;;;;;;5357163;26;20251;-73
2024/04/09 03:10:21;;;;;;;9.43;8.63;;;15.00;99.90;;;;;;5372113;26;20647;-73
2024/04/09 03:12:50;;;;;;;9.73;8.77;;;15.00;99.90;;;;;;5355486;26;20255;-71
2024/04/09 03:15:16;;;;;;;9.35;8.55;;;15.00;99.90;;;;;;5354129;26;20777;-72
2024/04/09 03:17:45;;;;;;;10.13;9.32;;;15.00;99.90;;;;;;5356380;26;20269;-70
2024/04/09 03:20:11;;;;;;;9.40;8.48;;;15.00;99.90;;;;;;5352733;26;20250;-71
2024/04/09 03:22:40;;;;;;;9.77;8.88;;;15.00;99.90;;;;;;5352488;26;20263;-71
2024/04/09 03:25:09;;;;;;;9.32;8.50;;;15.00;99.90;;;;;;5356278;26;20253;-72
2024/04/09 03:27:38;;;;;;;10.25;9.10;;;14.90;99.90;;;;;;5353457;26;21195;-71
2024/04/09 03:30:05;;;;;;;9.70;8.80;;;15.00;99.90;;;;;;5346899;26;20293;-71
2024/04/09 03:32:34;;;;;;;10.20;9.30;;;15.00;99.90;;;;;;5351501;26;20257;-73
2024/04/09 03:35:00;;;;;;;10.75;9.77;;;15.00;99.90;;;;;;5355796;26;20300;-72
2024/04/09 03:37:29;;;;;;;10.82;9.82;;;15.00;99.90;;;;;;5353635;26;20253;-74
2024/04/09 03:39:58;;;;;;;10.48;9.48;;;15.10;99.90;;;;;;5347132;26;20344;-72
2024/04/09 03:42:29;;;;;;;11.00;10.00;;;15.00;99.90;;;;;;5354162;26;20250;-71
2024/04/09 03:44:55;;;;;;;10.75;9.77;;;15.00;99.90;;;;;;5353797;26;20253;-72
2024/04/09 03:47:24;;;;;;;10.68;9.68;;;14.90;99.90;;;;;;5356335;26;20897;-72
2024/04/09 03:49:50;;;;;;;10.35;9.35;;;14.90;99.90;;;;;;5346296;26;20253;-72
2024/04/09 03:52:18;;;;;;;10.45;9.55;;;14.80;99.90;;;;;;5355660;26;20311;-73
2024/04/09 03:54:46;;;;;;;10.73;9.73;;;14.80;99.90;;;;;;5353648;26;20250;-72
2024/04/09 03:57:15;;;;;;;10.63;9.63;;;14.80;99.90;;;;;;5353142;26;20249;-72
2024/04/09 03:59:43;;;;;;;11.38;10.35;;;14.80;99.90;;;;;;5345678;26;20354;-71
2024/04/09 04:02:12;;;;;;;12.35;11.25;;;14.80;99.90;;;;;;5346954;26;21168;-73
2024/04/09 04:04:40;;;;;;;12.93;11.63;;;14.70;99.90;;;;;;5352422;26;20292;-71
2024/04/09 04:07:06;;;;;;;11.60;10.60;;;14.70;99.90;;;;;;5347789;26;20265;-73
2024/04/09 04:09:35;;;;;;;12.35;11.25;;;14.60;99.90;;;;;;5360476;26;20296;-71
2024/04/09 04:12:02;;;;;;;12.55;11.45;;;14.60;99.90;;;;;;5350595;26;20358;-72
2024/04/09 04:14:30;;;;;;;12.23;11.13;;;14.60;99.90;;;;;;5353878;26;20273;-71
2024/04/09 04:16:59;;;;;;;12.50;11.43;;;14.60;99.90;;;;;;5352333;26;20358;-71
2024/04/09 04:19:27;;;;;;;12.00;10.93;;;14.60;99.90;;;;;;5350104;26;20316;-71
2024/04/09 04:21:53;;;;;;;11.13;10.18;;;14.60;99.90;;;;;;5349738;26;20324;-71
2024/04/09 04:24:22;;;;;;;10.75;9.75;;;14.60;99.90;;;;;;5355077;26;20757;-73
2024/04/09 04:26:48;;;;;;;10.98;9.98;;;14.70;99.90;;;;;;5349472;26;20265;-72
2024/04/09 04:29:16;;;;;;;13.38;12.27;;;14.70;99.90;;;;;;5351907;26;20341;-70
2024/04/09 04:31:44;;;;;;;11.20;10.15;;;14.70;99.90;;;;;;5348049;26;20257;-72
2024/04/09 04:34:16;;;;;;;13.15;11.85;;;14.70;99.90;;;;;;5354271;26;20295;-72
2024/04/09 04:36:42;;;;;;;11.68;10.68;;;14.70;99.90;;;;;;5347934;26;20261;-72
2024/04/09 04:39:11;;;;;;;12.07;10.88;;;14.70;99.90;;;;;;5357645;26;20818;-71
2024/04/09 04:41:37;;;;;;;11.98;10.98;;;14.70;99.90;;;;;;5351765;26;20300;-71
2024/04/09 04:44:05;;;;;;;12.32;11.23;;;14.70;99.90;;;;;;5354092;26;20295;-72
2024/04/09 04:46:31;;;;;;;11.98;10.88;;;14.60;99.90;;;;;;5346385;26;20250;-71
2024/04/09 04:49:00;;;;;;;12.23;11.20;;;14.60;99.90;;;;;;5352494;26;21574;-71
2024/04/09 04:51:28;;;;;;;13.55;12.35;;;14.60;99.90;;;;;;5351464;26;20581;-71
2024/04/09 04:53:57;;;;;;;13.00;11.80;;;14.60;99.90;;;;;;5352167;26;20353;-72
2024/04/09 04:56:23;;;;;;;14.02;12.68;;;14.50;99.90;;;;;;5351510;26;20257;-72
2024/04/09 04:58:51;;;;;;;13.25;12.02;;;14.50;99.90;;;;;;5352056;26;20251;-72
2024/04/09 05:01:17;;;;;;;11.98;10.88;;;14.50;99.90;;;;;;5347875;26;20264;-70
2024/04/09 05:03:46;;;;;;;12.40;11.20;;;14.40;99.90;;;;;;5349139;26;20257;-71
2024/04/09 05:06:12;;;;;;;13.02;11.73;;;14.40;99.90;;;;;;5348873;26;20246;-72
2024/04/09 05:08:43;;;;;;;12.23;11.13;;;14.50;99.90;;;;;;5356710;26;20312;-71
2024/04/09 05:11:10;;;;;;;10.65;9.75;;;14.50;99.90;;;;;;5352783;26;20253;-73
2024/04/09 05:13:39;;;;;;;10.93;9.93;;;14.50;99.90;;;;;;5350490;26;20322;-72
2024/04/09 05:16:05;;;;;;;9.77;8.88;;;14.60;99.90;;;;;;5372756;26;20269;-74
2024/04/09 05:18:33;;;;;;;10.75;9.82;;;14.60;99.90;;;;;;5361399;26;20265;-71
2024/04/09 05:20:59;;;;;;;11.45;10.45;;;14.60;99.90;;;;;;5354103;26;20250;-74
2024/04/09 05:23:28;;;;;;;10.73;9.73;;;14.60;99.90;;;;;;5360886;26;20276;-72
2024/04/09 05:25:57;;;;;;;10.02;9.13;;;14.60;99.90;;;;;;5366325;26;20257;-72
2024/04/09 05:28:25;;;;;;;10.13;9.13;;;14.70;99.90;;;;;;5358417;26;21105;-71
2024/04/09 05:30:51;;;;;;;11.10;9.60;;;14.70;99.90;;;;;;5352086;26;20265;-71
2024/04/09 05:33:20;;;;;;;10.35;9.35;;;14.80;99.90;;;;;;5351586;26;20304;-73
2024/04/09 05:35:46;;;;;;;9.05;8.23;;;14.80;99.90;;;;;;5357235;26;20250;-72
2024/04/09 05:38:14;;;;;;;9.13;8.32;;;14.80;99.90;;;;;;5353842;26;20319;-71
2024/04/09 05:40:40;;;;;;;8.52;7.72;;;15.00;99.90;;;;;;5357488;26;20257;-71
2024/04/09 05:43:12;;;;;;;7.90;7.20;;;15.00;99.90;;;;;;5357604;26;21468;-73
2024/04/09 05:45:38;;;;;;;9.05;8.35;;;15.10;99.90;;;;;;5353602;26;20254;-72
2024/04/09 05:48:09;;;;;;;10.68;8.82;;;15.10;99.90;;;;;;5356928;26;20288;-71
2024/04/09 05:50:35;;;;;;;9.95;8.50;;;15.10;99.90;;;;;;5361644;26;20325;-72
2024/04/09 05:53:04;;;;;;;9.65;8.75;;;15.20;99.90;;;;;;5349864;26;20770;-71
2024/04/09 05:55:30;;;;;;;8.88;7.97;;;15.30;99.90;;;;;;5352325;26;20330;-71
2024/04/09 05:57:59;;;;;;;8.00;7.38;;;15.60;99.90;;;;;;5354402;26;20293;-73
2024/04/09 06:00:27;;;;;;;8.35;7.65;;;15.80;99.90;;;;;;5359308;26;20833;-72
2024/04/09 06:02:56;;;;;;;8.05;7.30;;;16.10;99.90;;;;;;5352474;26;20258;-73
2024/04/09 06:05:22;;;;;;;8.60;7.78;;;16.30;99.90;;;;;;5352284;26;20287;-73
2024/04/09 06:07:51;;;;;;;9.13;8.23;;;16.50;99.90;;;;;;5357756;26;20261;-72
2024/04/09 06:10:18;;;;;;;8.35;7.65;;;16.60;99.90;;;;;;5363199;26;20312;-72
2024/04/09 06:12:47;;;;;;;8.65;7.78;;;16.60;99.90;;;;;;5354801;26;20292;-72
2024/04/09 06:15:13;;;;;;;9.93;7.38;;;16.70;99.90;;;;;;5357333;26;20257;-73
2024/04/09 06:17:46;;;;;;;7.07;6.47;;;16.80;99.90;;;;;;5360835;26;20367;-73
2024/04/09 06:20:12;;;;;;;7.70;6.97;;;16.90;99.90;;;;;;5357903;26;20280;-72
2024/04/09 06:22:41;;;;;;;7.22;6.25;;;17.10;99.90;;;;;;5359146;26;20620;-73
2024/04/09 06:25:07;;;;;;;6.78;5.97;;;17.20;99.90;;;;;;5357282;26;20250;-72
2024/04/09 06:27:35;;;;;;;6.63;6.03;;;17.40;99.90;;;;;;5358021;26;20249;-72
2024/04/09 06:30:01;;;;;;;6.47;5.88;;;17.50;99.90;;;;;;5360248;26;20265;-72
2024/04/09 06:32:30;;;;;;;7.05;6.35;;;17.70;99.90;;;;;;5359782;26;20265;-73
2024/04/09 06:34:59;;;;;;;8.52;7.63;;;17.90;99.90;;;;;;5348225;26;20292;-73
2024/04/09 06:37:27;;;;;;;13.52;7.55;;;17.80;99.90;;;;;;5361323;26;20265;-73
2024/04/09 06:39:53;;;;;;;7.63;6.93;;;17.90;99.90;;;;;;5360303;26;20261;-74
2024/04/09 06:42:22;;;;;;;10.02;7.65;;;18.10;99.90;;;;;;5359294;26;20253;-76
2024/04/09 06:44:48;;;;;;;9.82;8.82;;;18.10;99.90;;;;;;5359512;26;20261;-73
2024/04/09 06:47:16;;;;;;;11.02;9.93;;;18.20;99.90;;;;;;5359426;26;20287;-73
2024/04/09 06:49:43;;;;;;;10.85;9.20;;;18.20;99.90;;;;;;5347846;26;20246;-72
2024/04/09 06:52:14;;;;;;;10.75;9.32;;;18.20;99.90;;;;;;5351202;26;20709;-72
2024/04/09 06:54:40;;;;;;;9.98;8.93;;;18.20;99.90;;;;;;5358176;26;20257;-72
2024/04/09 06:57:09;;;;;;;9.77;8.82;;;18.30;99.90;;;;;;5353986;26;20317;-71
2024/04/09 06:59:35;;;;;;;10.77;9.48;;;18.40;99.90;;;;;;5356480;26;20857;-73
2024/04/09 07:02:04;;;;;;;12.20;10.73;;;18.50;99.90;;;;;;5348798;26;20297;-73
2024/04/09 07:04:30;;;;;;;10.90;9.98;;;18.30;99.90;;;;;;5349569;26;20293;-74
2024/04/09 07:06:58;;;;;;;11.23;10.13;;;18.20;99.90;;;;;;5356899;26;20266;-73
2024/04/09 07:09:27;;;;;;;14.02;10.80;;;18.20;99.90;;;;;;5358279;26;20262;-74
2024/04/09 07:11:56;;;;;;;11.65;10.45;;;18.20;99.90;;;;;;5350021;26;20254;-73
2024/04/09 07:14:21;;;;;;;11.38;10.20;;;18.00;99.90;;;;;;5354342;26;20590;-74
2024/04/09 07:16:50;;;;;;;12.63;10.65;;;18.00;99.90;;;;;;5350076;26;20304;-73
2024/04/09 07:19:16;;;;;;;13.50;11.10;;;18.10;99.90;;;;;;5352155;26;20736;-73
2024/04/09 07:21:44;;;;;;;12.63;9.45;;;18.10;99.90;;;;;;5352955;26;20308;-72
2024/04/09 07:24:10;;;;;;;11.73;9.43;;;18.10;99.90;;;;;;5359607;26;20299;-74
2024/04/09 07:26:41;;;;;;;11.30;8.75;;;18.30;99.90;;;;;;5380301;26;20257;-77
2024/04/09 07:29:07;;;;;;;9.50;8.30;;;18.60;99.90;;;;;;5363641;26;20235;-75
2024/04/09 07:31:37;;;;;;;9.00;8.10;;;18.60;99.90;;;;;;5350284;26;20257;-73
2024/04/09 07:34:03;;;;;;;14.32;10.00;;;18.60;99.90;;;;;;5353468;26;20297;-75
2024/04/09 07:36:32;;;;;;;12.90;10.20;;;18.50;99.90;;;;;;5351933;26;20374;-75
2024/04/09 07:38:58;;;;;;;14.38;11.27;;;18.40;99.90;;;;;;5355235;26;20261;-72
2024/04/09 07:41:26;;;;;;;15.30;11.05;;;18.30;99.90;;;;;;5354154;26;20631;-72
2024/04/09 07:43:55;;;;;;;10.95;9.85;;;18.40;99.90;;;;;;5353149;26;20237;-71
2024/04/09 07:46:24;;;;;;;10.65;9.63;;;18.50;99.90;;;;;;5345119;26;20303;-72
2024/04/09 07:48:50;;;;;;;11.02;9.88;;;18.60;99.90;;;;;;5353215;26;20265;-72
2024/04/09 07:51:19;;;;;;;12.30;9.38;;;18.70;99.90;;;;;;5347644;26;20273;-73
2024/04/09 07:53:45;;;;;;;11.30;10.20;;;18.80;99.90;;;;;;5349587;26;20292;-72
2024/04/09 07:56:15;;;;;;;11.35;9.77;;;18.90;99.90;;;;;;5347949;26;20306;-73
2024/04/09 07:58:41;;;;;;;12.77;10.43;;;19.10;99.90;;;;;;5354469;26;20272;-75
2024/04/09 08:01:12;;;;;;;10.18;9.07;;;19.40;99.90;;;;;;5345150;26;20317;-73
2024/04/09 08:03:38;;;;;;;10.57;8.65;;;19.70;99.90;;;;;;5352575;26;20265;-73
2024/04/09 08:06:07;;;;;;;10.35;9.35;;;20.00;99.90;;;;;;5347552;26;20258;-72
2024/04/09 08:08:33;;;;;;;10.23;9.30;;;20.20;99.90;;;;;;5355133;26;20257;-71
2024/04/09 08:11:03;;;;;;;17.33;10.52;;;20.30;99.90;;;;;;5349451;26;20333;-71
2024/04/09 08:13:29;;;;;;;12.18;9.15;;;20.40;99.90;;;;;;5356544;26;20300;-71
2024/04/09 08:15:58;;;;;;;10.43;9.32;;;20.60;99.90;;;;;;5354189;26;20339;-74
2024/04/09 08:18:27;;;;;;;11.93;10.02;;;20.70;99.90;;;;;;5352676;26;20292;-71
2024/04/09 08:20:56;;;;;;;9.77;8.90;;;20.70;99.90;;;;;;5354083;26;20299;-71
2024/04/09 08:23:22;;;;;;;12.13;9.13;;;20.80;99.90;;;;;;5352494;26;20265;-72
2024/04/09 08:25:51;;;;;;;10.23;8.27;;;20.90;99.90;;;;;;5360343;26;20308;-72
2024/04/09 08:28:18;;;;;;;11.77;9.73;;;20.80;99.90;;;;;;5352065;26;20356;-72
2024/04/09 08:30:47;;;;;;;11.23;9.23;;;20.60;99.90;;;;;;5358580;26;20342;-73
2024/04/09 08:33:13;;;;;;;11.38;10.25;;;20.70;99.90;;;;;;5354011;26;20258;-72
2024/04/09 08:35:49;;;;;;;10.43;9.25;;;20.70;99.90;;;;;;5351698;26;20257;-72
2024/04/09 08:38:17;;;;;;;11.25;10.20;;;20.60;99.90;;;;;;5363315;26;20366;-72
2024/04/09 08:40:45;;;;;;;11.18;9.85;;;20.60;99.90;;;;;;5351481;26;20691;-72
2024/04/09 08:43:15;;;;;;;11.07;9.82;;;20.60;99.90;;;;;;5348450;26;20249;-73
2024/04/09 08:45:45;;;;;;;12.32;10.95;;;20.70;99.90;;;;;;5348214;26;20304;-73
2024/04/09 08:48:13;;;;;;;11.98;9.68;;;20.80;99.90;;;;;;5356662;26;20266;-73
2024/04/09 08:50:46;;;;;;;11.93;10.63;;;20.80;99.90;;;;;;5348559;26;20846;-72
2024/04/09 08:53:17;;;;;;;11.02;9.88;;;21.00;99.90;;;;;;5354319;26;20606;-72
2024/04/09 08:55:46;;;;;;;12.50;11.07;;;21.00;99.90;;;;;;5355311;26;20277;-73
2024/04/09 08:58:12;;;;;;;13.35;11.80;;;21.00;99.90;;;;;;5357995;26;20253;-72
2024/04/09 09:00:41;;;;;;;17.50;13.18;;;21.00;99.90;;;;;;5362486;26;20249;-73
2024/04/09 09:03:06;;;;;;;16.05;11.93;;;21.00;99.90;;;;;;5356644;26;20301;-74
2024/04/09 09:05:35;;;;;;;15.27;11.27;;;21.10;99.90;;;;;;5353180;26;20261;-71
2024/04/09 09:08:02;;;;;;;13.30;11.35;;;21.20;99.90;;;;;;5362374;26;20254;-71
2024/04/09 09:10:33;;;;;;;14.60;12.13;;;21.20;99.90;;;;;;5354407;26;20257;-72
2024/04/09 09:13:02;;;;;;;10.80;9.70;;;21.30;99.90;;;;;;5361456;26;20253;-71
2024/04/09 09:15:30;;;;;;;13.35;10.18;;;21.10;99.90;;;;;;5358656;26;20340;-72
2024/04/09 09:17:56;;;;;;;7.97;7.28;;;21.20;99.90;;;;;;5358984;26;20659;-72
2024/04/09 09:20:25;;;;;;;12.13;9.90;;;21.30;99.90;;;;;;5359818;26;20261;-72
2024/04/09 09:22:52;;;;;;;11.50;10.40;;;21.30;99.90;;;;;;5361217;26;20258;-72
2024/04/09 09:25:22;;;;;;;14.13;11.30;;;21.20;99.90;;;;;;5362745;26;20298;-72
2024/04/09 09:28:02;;;;;;;12.73;11.35;;;21.20;99.90;;;;;;5361805;26;20265;-76
2024/04/09 09:30:40;;;;;;;13.55;10.20;;;21.30;99.90;;;;;;5356598;26;20257;-73
2024/04/09 09:33:11;;;;;;;14.20;10.80;;;21.30;99.90;;;;;;5359097;26;20261;-71
2024/04/09 09:35:45;;;;;;;11.65;9.75;;;21.50;99.90;;;;;;5359693;26;20314;-72
2024/04/09 09:38:11;;;;;;;11.85;10.63;;;21.70;99.90;;;;;;5382994;26;20250;-75
2024/04/09 09:40:40;;;;;;;21.75;13.50;;;21.90;99.90;;;;;;5365922;26;20249;-73
2024/04/09 09:43:10;;;;;;;21.83;13.23;;;22.20;99.90;;;;;;5363193;26;20265;-71
2024/04/09 09:45:40;;;;;;;19.00;12.63;;;22.30;99.90;;;;;;5359006;26;20269;-72
2024/04/09 09:48:10;;;;;;;10.95;9.40;;;22.30;99.90;;;;;;5353460;26;20289;-72
2024/04/09 09:50:40;;;;;;;27.63;13.68;;;22.70;99.90;;;;;;5356461;26;20264;-72
2024/04/09 09:53:07;;;;;;;13.25;11.90;;;22.80;99.90;;;;;;5365659;26;20372;-71
2024/04/09 09:55:37;;;;;;;12.20;11.00;;;22.90;99.90;;;;;;5357402;26;21081;-71
2024/04/09 09:58:05;;;;;;;44.28;21.00;;;23.10;99.90;;;;;;5351914;26;20720;-73
2024/04/09 10:00:38;;;;;;;19.35;14.15;;;23.30;99.90;;;;;;5350972;26;20305;-72
2024/04/09 10:03:05;;;;;;;14.73;13.02;;;23.20;99.90;;;;;;5347480;26;20251;-72
2024/04/09 10:05:34;;;;;;;13.05;11.75;;;23.20;99.90;;;;;;5345359;26;20762;-72
2024/04/09 10:08:00;;;;;;;16.13;13.88;;;23.40;99.90;;;;;;5352603;26;20293;-72
2024/04/09 10:10:32;;;;;;;15.45;13.75;;;23.30;99.90;;;;;;5346882;26;20295;-72
2024/04/09 10:13:07;;;;;;;17.95;14.32;;;23.00;99.90;;;;;;5349039;26;20253;-73
2024/04/09 10:15:46;;;;;;;19.27;13.40;;;22.90;99.90;;;;;;5347176;26;20339;-72
2024/04/09 10:18:27;;;;;;;18.77;14.02;;;22.90;99.90;;;;;;5350719;26;20314;-73
2024/04/09 10:20:56;;;;;;;15.55;12.10;;;23.10;99.90;;;;;;5356093;26;20253;-73
2024/04/09 10:23:23;;;;;;;14.45;11.80;;;23.20;99.90;;;;;;5351015;26;20266;-72
2024/04/09 10:25:52;;;;;;;23.05;14.65;;;23.10;99.90;;;;;;5354869;26;20254;-73
2024/04/09 10:28:27;;;;;;;14.88;12.35;;;23.00;99.90;;;;;;5348223;26;20296;-72
2024/04/09 10:31:02;;;;;;;21.02;12.50;;;23.20;99.90;;;;;;5351610;26;20299;-72
2024/04/09 10:33:32;;;;;;;13.40;11.80;;;23.20;99.90;;;;;;5344093;26;20278;-71
2024/04/09 10:36:03;;;;;;;13.70;11.40;;;23.50;99.90;;;;;;5354785;26;20602;-74
2024/04/09 10:38:30;;;;;;;10.55;9.45;;;23.60;99.90;;;;;;5356649;26;20283;-72
2024/04/09 10:41:01;;;;;;;11.07;9.98;;;23.80;99.90;;;;;;5357071;26;20250;-71
2024/04/09 10:43:28;;;;;;;12.43;9.07;;;23.90;99.90;;;;;;5356248;26;20266;-71
2024/04/09 10:46:00;;;;;;;18.67;12.15;;;24.10;99.90;;;;;;5359509;26;20687;-74
2024/04/09 10:48:26;;;;;;;13.35;10.88;;;24.10;99.90;;;;;;5353317;26;20284;-74
2024/04/09 10:50:55;;;;;;;14.65;10.00;;;24.10;99.90;;;;;;5358022;26;20750;-72
2024/04/09 10:53:21;;;;;;;10.40;8.50;;;24.40;99.90;;;;;;5354626;26;20261;-72
2024/04/09 10:55:50;;;;;;;10.45;7.75;;;24.50;99.90;;;;;;5348343;26;20301;-75
2024/04/09 10:58:17;;;;;;;7.43;6.72;;;24.50;99.90;;;;;;5360145;26;20261;-71
2024/04/09 11:00:46;;;;;;;7.18;6.32;;;24.50;99.90;;;;;;5350722;26;20257;-72
2024/04/09 11:03:15;;;;;;;8.50;7.70;;;24.40;99.90;;;;;;5358291;26;20258;-72
2024/04/09 11:05:46;;;;;;;8.60;6.25;;;24.30;99.90;;;;;;5352455;26;21168;-71
2024/04/09 11:08:12;;;;;;;8.50;6.95;;;24.10;99.90;;;;;;5359597;26;20253;-72
2024/04/09 11:10:41;;;;;;;7.40;6.65;;;24.20;99.90;;;;;;5350328;26;20389;-73
2024/04/09 11:13:07;;;;;;;7.18;5.70;;;24.50;99.90;;;;;;5356797;26;20316;-71
2024/04/09 11:15:38;;;;;;;7.18;6.45;;;24.90;99.90;;;;;;5351485;26;20293;-72
2024/04/09 11:18:20;;;;;;;7.13;5.95;;;25.20;99.90;;;;;;5358164;26;20253;-72
2024/04/09 11:20:54;;;;;;;6.50;5.80;;;25.30;99.90;;;;;;5353270;26;20261;-73
2024/04/09 11:23:21;;;;;;;7.05;4.90;;;25.30;99.90;;;;;;5348262;26;20634;-74
2024/04/09 11:25:50;;;;;;;7.95;5.53;;;25.40;99.90;;;;;;5354367;26;20370;-72
2024/04/09 11:28:16;;;;;;;6.40;5.45;;;25.50;99.90;;;;;;5355110;26;20265;-73
2024/04/09 11:30:50;;;;;;;5.78;5.10;;;25.30;99.90;;;;;;5352930;26;20291;-71
2024/04/09 11:33:19;;;;;;;7.15;5.82;;;25.20;99.90;;;;;;5354607;26;20269;-72
2024/04/09 11:35:54;;;;;;;7.00;6.32;;;25.20;99.90;;;;;;5355062;26;20279;-73
2024/04/09 11:38:21;;;;;;;9.55;6.65;;;25.10;99.90;;;;;;5353183;26;20249;-75
2024/04/09 11:40:50;;;;;;;8.68;7.07;;;24.90;99.90;;;;;;5350559;26;20269;-72
2024/04/09 11:43:16;;;;;;;8.63;6.90;;;25.00;99.90;;;;;;5356244;26;20995;-70
2024/04/09 11:45:45;;;;;;;9.30;8.40;;;25.00;99.90;;;;;;5349874;26;20311;-68
2024/04/09 11:48:11;;;;;;;10.00;8.32;;;24.80;99.90;;;;;;5363750;26;20265;-70
2024/04/09 11:50:42;;;;;;;6.90;6.15;;;24.40;99.90;;;;;;5377844;26;20288;-72
2024/04/09 11:53:08;;;;;;;11.50;7.65;;;24.30;99.90;;;;;;5365934;26;20258;-73
2024/04/09 11:55:37;;;;;;;6.90;6.22;;;24.10;99.90;;;;;;5349690;26;20291;-72
2024/04/09 11:58:03;;;;;;;6.70;5.50;;;23.90;99.90;;;;;;5348907;26;21097;-73
2024/04/09 12:00:32;;;;;;;5.38;4.70;;;23.80;99.90;;;;;;5346088;26;20260;-70
2024/04/09 12:02:59;;;;;;;8.77;5.45;;;24.10;99.90;;;;;;5349319;26;20293;-72
2024/04/09 12:05:27;;;;;;;4.82;4.35;;;24.50;99.90;;;;;;5353558;26;20732;-73
2024/04/09 12:07:56;;;;;;;5.05;4.47;;;25.00;99.90;;;;;;5356075;26;21052;-71
2024/04/09 12:10:25;;;;;;;11.00;3.70;;;25.30;99.90;;;;;;5351578;26;20253;-72
2024/04/09 12:12:51;;;;;;;4.18;3.75;;;25.50;99.90;;;;;;5356046;26;20265;-72
2024/04/09 12:15:20;;;;;;;4.20;3.80;;;25.60;99.90;;;;;;5345552;26;20631;-72
2024/04/09 12:17:46;;;;;;;6.25;3.38;;;25.80;99.90;;;;;;5352809;26;20317;-70
2024/04/09 12:20:15;;;;;;;4.60;2.90;;;25.70;99.90;;;;;;5352379;26;20736;-74
2024/04/09 12:22:41;;;;;;;5.40;2.90;;;25.60;99.90;;;;;;5354301;26;20400;-72
2024/04/09 12:25:12;;;;;;;3.95;2.30;;;25.50;99.90;;;;;;5344498;26;20269;-71
2024/04/09 12:27:38;;;;;;;3.83;2.30;;;25.50;99.90;;;;;;5353682;26;20253;-72
2024/04/09 12:30:08;;;;;;;4.82;2.67;;;25.70;99.90;;;;;;5348786;26;20280;-72
2024/04/09 12:32:34;;;;;;;4.95;2.22;;;25.70;99.90;;;;;;5353546;26;20419;-73
2024/04/09 12:35:03;;;;;;;4.43;2.45;;;25.90;99.90;;;;;;5354524;26;20300;-73
2024/04/09 12:37:29;;;;;;;4.75;2.45;;;26.00;99.90;;;;;;5355859;26;20254;-73
2024/04/09 12:39:57;;;;;;;8.82;2.58;;;26.30;99.90;;;;;;5351932;26;20249;-74
2024/04/09 12:42:26;;;;;;;3.40;2.20;;;26.40;99.90;;;;;;5353268;26;20946;-73